Time;durP1;ratioP1;P1;durP2;ratioP2;P2;SDS_P1;SDS_P2;PMS_P1;PMS_P2;Temp;Humidity;BMP_temperature;BMP_pressure;BME280_temperature;BME280_humidity;BME280_pressure;Samples;Min_cycle;Max_cycle;Signal;HPM_P1;HPM_P2
2023/08/30 00:00:08;;;;;;;13.27;9.18;;;;;;;10.51;100.00;100892.75;5053171;28;20072;-78
2023/08/30 00:02:33;;;;;;;12.55;8.90;;;;;;;10.30;100.00;100863.09;5052836;28;20384;-78
2023/08/30 00:04:59;;;;;;;11.25;8.88;;;;;;;10.10;100.00;100822.16;5052774;28;20021;-75
2023/08/30 00:07:25;;;;;;;12.35;9.13;;;;;;;10.41;100.00;100876.16;5053091;28;20033;-78
2023/08/30 00:09:50;;;;;;;10.90;8.20;;;;;;;10.41;100.00;100883.91;5052772;28;20483;-78
2023/08/30 00:12:15;;;;;;;10.38;8.55;;;;;;;10.40;100.00;100879.66;5052900;28;20380;-79
2023/08/30 00:14:41;;;;;;;9.80;8.52;;;;;;;10.38;100.00;100881.53;5052885;28;20461;-79
2023/08/30 00:17:07;;;;;;;11.23;9.00;;;;;;;10.35;100.00;100876.56;5052596;28;20036;-79
2023/08/30 00:19:32;;;;;;;11.40;9.15;;;;;;;10.34;100.00;100873.16;5052887;28;20067;-79
2023/08/30 00:21:57;;;;;;;10.23;8.25;;;;;;;10.28;100.00;100870.09;5053110;28;20094;-78
2023/08/30 00:24:23;;;;;;;12.07;9.10;;;;;;;10.30;100.00;100870.84;5052641;28;20025;-79
2023/08/30 00:26:48;;;;;;;10.25;8.88;;;;;;;10.28;100.00;100877.84;5052687;28;20472;-79
2023/08/30 00:29:13;;;;;;;11.52;9.23;;;;;;;10.24;100.00;100881.56;5052672;28;20067;-78
2023/08/30 00:31:39;;;;;;;12.07;9.10;;;;;;;10.24;100.00;100873.81;5052398;28;20032;-79
2023/08/30 00:34:04;;;;;;;11.70;9.32;;;;;;;10.22;100.00;100868.72;5052519;28;20051;-79
2023/08/30 00:36:30;;;;;;;12.60;9.25;;;;;;;10.14;100.00;100863.19;5052311;28;20032;-80
2023/08/30 00:38:55;;;;;;;13.07;9.77;;;;;;;10.09;100.00;100854.03;5052377;28;20048;-78
2023/08/30 00:41:21;;;;;;;13.15;9.75;;;;;;;10.05;100.00;100845.66;5052656;28;20040;-79
2023/08/30 00:43:46;;;;;;;12.43;9.98;;;;;;;10.01;100.00;100847.59;5052458;28;20100;-79
2023/08/30 00:46:12;;;;;;;12.00;9.75;;;;;;;9.96;100.00;100839.31;5052363;28;20051;-81
2023/08/30 00:48:38;;;;;;;11.40;9.52;;;;;;;10.04;100.00;100847.44;5052195;28;20486;-79
2023/08/30 00:51:03;;;;;;;11.43;10.05;;;;;;;10.05;100.00;100846.50;5052089;28;20029;-78
2023/08/30 00:53:29;;;;;;;13.23;10.13;;;;;;;9.96;100.00;100836.72;5051940;28;20025;-79
2023/08/30 00:55:54;;;;;;;12.68;10.00;;;;;;;9.94;100.00;100843.75;5052293;28;20077;-79
2023/08/30 00:58:19;;;;;;;13.40;10.38;;;;;;;9.93;100.00;100842.09;5052264;28;20029;-79
2023/08/30 01:00:46;;;;;;;13.57;10.95;;;;;;;9.76;100.00;100822.44;5052477;28;20029;-79
2023/08/30 01:03:11;;;;;;;12.20;10.02;;;;;;;9.92;100.00;100844.72;5052081;28;20029;-79
2023/08/30 01:05:36;;;;;;;13.70;10.90;;;;;;;9.66;100.00;100813.59;5052306;28;20400;-78
2023/08/30 01:08:02;;;;;;;12.55;10.25;;;;;;;9.84;100.00;100842.63;5052158;28;20056;-78
2023/08/30 01:10:41;;;;;;;14.80;10.20;;;;;;;9.75;100.00;100827.72;5052057;28;20380;-79
2023/08/30 01:13:10;;;;;;;12.95;10.05;;;;;;;9.79;100.00;100842.06;5052326;28;20036;-79
2023/08/30 01:15:38;;;;;;;12.77;10.93;;;;;;;9.69;100.00;100835.78;5052325;28;20021;-78
2023/08/30 01:18:05;;;;;;;13.65;10.43;;;;;;;9.74;100.00;100847.50;5052181;28;20037;-79
2023/08/30 01:20:35;;;;;;;12.45;10.75;;;;;;;9.61;100.00;100825.94;5051765;28;20029;-79
2023/08/30 01:23:09;;;;;;;14.80;10.60;;;;;;;9.72;100.00;100840.75;5052067;28;20043;-78
2023/08/30 01:25:54;;;;;;;12.73;9.98;;;;;;;9.68;100.00;100837.53;5052143;28;20036;-77
2023/08/30 01:28:23;;;;;;;12.52;10.20;;;;;;;9.55;100.00;100828.88;5052097;28;20028;-79
2023/08/30 01:30:50;;;;;;;12.30;10.07;;;;;;;9.50;100.00;100807.69;5051965;28;20029;-78
2023/08/30 01:33:17;;;;;;;12.45;9.82;;;;;;;9.59;100.00;100825.19;5051540;28;20120;-78
2023/08/30 01:35:43;;;;;;;13.63;10.07;;;;;;;9.57;100.00;100823.63;5051950;28;20104;-79
2023/08/30 01:38:09;;;;;;;16.33;11.20;;;;;;;9.56;100.00;100816.81;5051952;28;20116;-78
2023/08/30 01:40:37;;;;;;;13.45;10.73;;;;;;;9.52;100.00;100812.75;5051968;28;20025;-78
2023/08/30 01:43:05;;;;;;;14.75;11.02;;;;;;;9.21;100.00;100775.88;5052191;28;20388;-77
2023/08/30 01:45:33;;;;;;;13.48;10.35;;;;;;;9.45;100.00;100823.44;5051945;28;20594;-79
2023/08/30 01:47:59;;;;;;;12.88;10.65;;;;;;;9.38;100.00;100811.00;5051720;28;20138;-78
2023/08/30 01:50:27;;;;;;;15.07;11.10;;;;;;;9.42;100.00;100827.91;5051684;28;20036;-78
2023/08/30 01:52:53;;;;;;;13.25;9.55;;;;;;;9.37;100.00;100824.78;5051579;28;20083;-78
2023/08/30 01:55:21;;;;;;;13.60;10.18;;;;;;;9.05;100.00;100777.69;5049543;28;20052;-78
2023/08/30 01:57:49;;;;;;;13.18;10.27;;;;;;;9.29;100.00;100821.81;5051917;28;20083;-78
2023/08/30 02:00:15;;;;;;;13.93;11.38;;;;;;;9.28;100.00;100825.31;5050398;28;20365;-77
2023/08/30 02:02:40;;;;;;;12.73;10.60;;;;;;;9.08;100.00;100786.06;5053915;28;20028;-79
2023/08/30 02:05:06;;;;;;;12.68;10.35;;;;;;;9.17;100.00;100803.59;5055297;28;20025;-78
2023/08/30 02:07:43;;;;;;;13.13;11.15;;;;;;;9.15;100.00;100810.56;5053885;28;20079;-78
2023/08/30 02:10:13;;;;;;;15.52;10.85;;;;;;;9.09;100.00;100797.19;5055326;28;20031;-78
2023/08/30 02:12:50;;;;;;;15.80;11.45;;;;;;;9.13;100.00;100811.56;5055146;28;20060;-78
2023/08/30 02:15:18;;;;;;;14.73;11.25;;;;;;;8.98;100.00;100792.66;5054910;28;20040;-78
2023/08/30 02:17:45;;;;;;;14.80;11.90;;;;;;;9.03;100.00;100800.94;5055130;28;20029;-78
2023/08/30 02:20:11;;;;;;;13.07;11.30;;;;;;;9.14;100.00;100815.78;5055028;28;20029;-78
2023/08/30 02:22:36;;;;;;;16.73;12.43;;;;;;;9.11;100.00;100809.06;5055124;28;20037;-78
2023/08/30 02:25:04;;;;;;;14.90;11.48;;;;;;;9.13;100.00;100806.41;5055035;28;20036;-78
2023/08/30 02:27:34;;;;;;;15.20;11.43;;;;;;;9.12;100.00;100804.75;5054849;28;20036;-78
2023/08/30 02:29:59;;;;;;;14.05;11.32;;;;;;;9.12;100.00;100809.91;5053536;28;20074;-78
2023/08/30 02:32:25;;;;;;;16.15;12.25;;;;;;;9.11;100.00;100808.25;5054660;28;20021;-78
2023/08/30 02:34:52;;;;;;;14.68;11.65;;;;;;;9.07;100.00;100802.44;5054668;28;20097;-78
2023/08/30 02:37:18;;;;;;;14.77;11.52;;;;;;;8.93;100.00;100783.53;5054670;28;20525;-78
2023/08/30 02:39:43;;;;;;;15.00;11.68;;;;;;;8.94;100.00;100780.84;5054672;28;20025;-78
2023/08/30 02:42:08;;;;;;;14.73;11.38;;;;;;;8.87;100.00;100775.25;5054570;28;20039;-78
2023/08/30 02:44:34;;;;;;;14.00;11.27;;;;;;;8.94;100.00;100786.00;5054596;28;20032;-78
2023/08/30 02:46:59;;;;;;;15.10;11.88;;;;;;;8.96;100.00;100793.69;5054859;28;20063;-78
2023/08/30 02:49:24;;;;;;;17.20;12.38;;;;;;;8.97;100.00;100790.19;5054343;28;20017;-79
2023/08/30 02:51:50;;;;;;;14.23;11.55;;;;;;;8.85;100.00;100771.94;5054510;28;20072;-78
2023/08/30 02:54:15;;;;;;;14.80;11.30;;;;;;;8.91;100.00;100784.44;5054626;28;20029;-79
2023/08/30 02:56:43;;;;;;;14.68;11.50;;;;;;;8.92;100.00;100780.13;5054359;28;20523;-78
2023/08/30 02:59:08;;;;;;;15.07;11.48;;;;;;;8.76;100.00;100754.44;5054163;28;20468;-78
2023/08/30 03:01:34;;;;;;;15.52;11.48;;;;;;;8.84;100.00;100759.13;5054415;28;20040;-78
2023/08/30 03:03:59;;;;;;;12.88;11.40;;;;;;;8.96;100.00;100762.78;5054279;28;20040;-78
2023/08/30 03:06:24;;;;;;;15.20;10.82;;;;;;;9.05;100.00;100772.56;5054236;28;20040;-80
2023/08/30 03:08:50;;;;;;;15.02;11.45;;;;;;;9.11;100.00;100777.34;5054094;28;20036;-78
2023/08/30 03:11:15;;;;;;;15.15;12.07;;;;;;;9.08;100.00;100762.88;5054289;28;20167;-79
2023/08/30 03:13:40;;;;;;;14.77;11.55;;;;;;;9.17;100.00;100761.53;5053744;28;20033;-78
2023/08/30 03:16:16;;;;;;;13.68;10.80;;;;;;;9.25;100.00;100759.34;5054034;28;20032;-78
2023/08/30 03:18:41;;;;;;;14.45;11.63;;;;;;;9.36;100.00;100764.69;5054238;28;20509;-78
2023/08/30 03:21:07;;;;;;;15.73;11.18;;;;;;;9.42;100.00;100761.72;5053829;28;20100;-78
2023/08/30 03:23:33;;;;;;;15.50;11.68;;;;;;;9.55;100.00;100768.75;5053972;28;20498;-77
2023/08/30 03:25:59;;;;;;;15.00;11.60;;;;;;;9.34;100.00;100730.47;5053673;28;20110;-79
2023/08/30 03:28:25;;;;;;;16.05;11.15;;;;;;;9.54;100.00;100764.50;5053682;28;20049;-79
2023/08/30 03:30:51;;;;;;;13.38;10.65;;;;;;;9.49;100.00;100757.88;5053729;28;20139;-81
2023/08/30 03:33:16;;;;;;;14.00;11.05;;;;;;;9.29;100.00;100729.88;5053830;28;20085;-80
2023/08/30 03:35:41;;;;;;;13.18;10.90;;;;;;;9.22;100.00;100720.84;5053588;28;20104;-81
2023/08/30 03:38:07;;;;;;;15.57;11.73;;;;;;;9.39;100.00;100750.78;5053890;28;20104;-78
2023/08/30 03:40:32;;;;;;;15.65;11.25;;;;;;;9.28;100.00;100728.22;5053407;28;20349;-78
2023/08/30 03:42:57;;;;;;;14.75;11.30;;;;;;;9.34;100.00;100739.91;5053486;28;20029;-78
2023/08/30 03:45:23;;;;;;;15.35;12.13;;;;;;;9.17;100.00;100703.09;5053466;28;20017;-79
2023/08/30 03:47:48;;;;;;;15.80;11.40;;;;;;;9.32;100.00;100718.56;5053171;28;20025;-79
2023/08/30 03:50:14;;;;;;;15.38;11.77;;;;;;;9.16;100.00;100690.31;5053326;28;20020;-78
2023/08/30 03:52:39;;;;;;;14.27;11.77;;;;;;;9.23;100.00;100708.78;5053226;28;20055;-79
2023/08/30 03:55:05;;;;;;;16.17;12.15;;;;;;;9.21;100.00;100701.16;5053125;28;20035;-78
2023/08/30 03:57:30;;;;;;;14.68;11.52;;;;;;;9.17;100.00;100694.53;5053388;28;20025;-78
2023/08/30 03:59:55;;;;;;;17.17;12.35;;;;;;;9.11;100.00;100685.41;5053070;28;20468;-77
2023/08/30 04:02:21;;;;;;;17.23;13.07;;;;;;;9.13;100.00;100687.91;5053080;28;20033;-78
2023/08/30 04:04:48;;;;;;;15.52;12.30;;;;;;;9.00;100.00;100668.94;5053170;28;20024;-78
2023/08/30 04:07:13;;;;;;;17.50;13.05;;;;;;;8.96;100.00;100659.75;5052913;28;20448;-78
2023/08/30 04:09:38;;;;;;;16.75;12.45;;;;;;;8.93;100.00;100654.75;5053066;28;20104;-78
2023/08/30 04:12:04;;;;;;;18.65;13.38;;;;;;;9.03;100.00;100677.31;5052770;28;20428;-78
2023/08/30 04:14:30;;;;;;;17.88;13.60;;;;;;;9.04;100.00;100689.28;5053045;28;20033;-78
2023/08/30 04:16:55;;;;;;;20.45;14.27;;;;;;;9.09;100.00;100687.25;5052915;28;20534;-78
2023/08/30 04:19:21;;;;;;;17.55;14.68;;;;;;;9.15;100.00;100670.63;5052830;28;20032;-79
2023/08/30 04:21:46;;;;;;;20.67;14.75;;;;;;;9.26;100.00;100681.13;5052566;28;20025;-77
2023/08/30 04:24:12;;;;;;;18.13;13.57;;;;;;;9.09;100.00;100648.63;5052101;28;20017;-78
2023/08/30 04:26:37;;;;;;;16.27;13.25;;;;;;;9.26;100.00;100673.38;5052918;28;20029;-78
2023/08/30 04:29:03;;;;;;;18.40;12.80;;;;;;;9.09;100.00;100653.78;5052777;28;20100;-78
2023/08/30 04:31:29;;;;;;;16.40;13.43;;;;;;;9.08;100.00;100651.28;5051462;28;20032;-78
2023/08/30 04:33:55;;;;;;;17.75;13.98;;;;;;;9.23;100.00;100665.81;5052343;28;20032;-78
2023/08/30 04:36:20;;;;;;;16.38;13.00;;;;;;;9.08;100.00;100656.44;5052486;28;20017;-79
2023/08/30 04:38:46;;;;;;;19.55;14.43;;;;;;;9.12;100.00;100658.75;5052573;28;20035;-79
2023/08/30 04:41:12;;;;;;;17.23;14.02;;;;;;;9.21;100.00;100649.63;5052494;28;20074;-78
2023/08/30 04:43:37;;;;;;;20.35;14.60;;;;;;;9.49;100.00;100672.81;5052549;28;20029;-79
2023/08/30 04:46:02;;;;;;;20.02;14.07;;;;;;;9.44;100.00;100641.34;5052484;28;20029;-79
2023/08/30 04:48:28;;;;;;;18.85;14.82;;;;;;;9.72;100.00;100662.84;5052442;28;20028;-79
2023/08/30 04:51:02;;;;;;;18.88;14.30;;;;;;;9.77;100.00;100648.75;5052228;28;20053;-78
2023/08/30 04:53:28;;;;;;;18.27;14.65;;;;;;;9.93;100.00;100648.63;5052390;28;20082;-78
2023/08/30 04:55:53;;;;;;;19.30;15.73;;;;;;;10.05;100.00;100645.25;5052271;28;20037;-79
2023/08/30 04:58:19;;;;;;;18.63;15.35;;;;;;;10.16;100.00;100643.75;5052393;28;20033;-77
2023/08/30 05:00:44;;;;;;;20.42;15.45;;;;;;;10.21;100.00;100647.66;5052499;28;20029;-78
2023/08/30 05:03:09;;;;;;;24.52;16.70;;;;;;;10.17;100.00;100617.00;5052411;28;20454;-78
2023/08/30 05:05:34;;;;;;;20.30;15.95;;;;;;;10.38;100.00;100638.06;5052161;28;20029;-79
2023/08/30 05:08:00;;;;;;;21.02;16.30;;;;;;;10.39;100.00;100619.06;5052091;28;20025;-77
2023/08/30 05:10:25;;;;;;;23.55;16.67;;;;;;;10.45;100.00;100622.06;5052344;28;20029;-78
2023/08/30 05:12:51;;;;;;;24.80;17.13;;;;;;;10.51;100.00;100626.81;5052356;28;20071;-78
2023/08/30 05:15:17;;;;;;;21.77;15.00;;;;;;;10.60;100.00;100630.53;5051062;28;20429;-78
2023/08/30 05:17:43;;;;;;;21.33;16.42;;;;;;;10.60;100.00;100621.03;5052292;28;20021;-77
2023/08/30 05:20:08;;;;;;;23.65;16.45;;;;;;;10.80;100.00;100631.81;5052167;28;20029;-77
2023/08/30 05:22:34;;;;;;;20.55;16.45;;;;;;;10.73;100.00;100605.59;5052071;28;20041;-77
2023/08/30 05:25:00;;;;;;;18.50;15.43;;;;;;;10.85;100.00;100612.50;5052206;28;20106;-77
2023/08/30 05:27:26;;;;;;;20.33;16.52;;;;;;;10.90;100.00;100610.41;5052080;28;20017;-77
2023/08/30 05:29:51;;;;;;;21.83;16.13;;;;;;;11.07;100.00;100616.19;5051844;28;20090;-77
2023/08/30 05:32:17;;;;;;;21.33;16.25;;;;;;;11.13;100.00;100614.03;5051984;28;20032;-77
2023/08/30 05:34:42;;;;;;;19.65;15.52;;;;;;;11.22;100.00;100616.91;5051783;28;20044;-77
2023/08/30 05:37:07;;;;;;;19.38;15.77;;;;;;;11.39;100.00;100627.72;5053656;28;20529;-78
2023/08/30 05:39:34;;;;;;;19.73;15.63;;;;;;;11.28;100.00;100591.47;5055901;28;20086;-77
2023/08/30 05:41:59;;;;;;;21.67;15.02;;;;;;;11.46;100.00;100612.63;5056055;28;20433;-77
2023/08/30 05:44:24;;;;;;;19.23;15.15;;;;;;;11.60;100.00;100616.81;5055866;28;20028;-77
2023/08/30 05:46:50;;;;;;;23.33;16.30;;;;;;;11.54;100.00;100594.81;5055806;28;20071;-77
2023/08/30 05:49:15;;;;;;;19.90;15.90;;;;;;;11.61;100.00;100595.22;5055623;28;20104;-77
2023/08/30 05:51:41;;;;;;;18.45;13.68;;;;;;;11.83;100.00;100590.19;5055694;28;20441;-77
2023/08/30 05:54:06;;;;;;;19.38;15.50;;;;;;;11.84;100.00;100580.66;5055183;28;20468;-78
2023/08/30 05:56:31;;;;;;;17.50;13.63;;;;;;;12.11;100.00;100583.00;5045386;28;20113;-77
2023/08/30 05:58:57;;;;;;;20.55;13.13;;;;;;;12.42;100.00;100591.94;5035495;28;20061;-77
2023/08/30 06:01:22;;;;;;;19.30;15.77;;;;;;;12.60;100.00;100603.50;5035387;28;20086;-77
2023/08/30 06:03:47;;;;;;;16.35;12.52;;;;;;;12.88;100.00;100595.31;5035484;28;20029;-79
2023/08/30 06:06:13;;;;;;;21.15;14.38;;;;;;;12.97;100.00;100605.88;5034111;28;20492;-80
2023/08/30 06:08:39;;;;;;;18.25;14.55;;;;;;;12.89;100.00;100580.56;5034913;28;20565;-85
2023/08/30 06:11:04;;;;;;;20.20;14.00;;;;;;;13.10;100.00;100601.44;5036342;28;20108;-81
2023/08/30 06:13:29;;;;;;;13.68;10.80;;;;;;;13.24;100.00;100592.59;5035353;28;20029;-78
2023/08/30 06:15:55;;;;;;;13.13;8.45;;;;;;;13.44;100.00;100604.84;5035418;28;20017;-81
2023/08/30 06:18:20;;;;;;;15.85;12.48;;;;;;;13.09;100.00;100569.50;5035330;28;20049;-80
2023/08/30 06:20:46;;;;;;;16.27;11.73;;;;;;;13.41;100.00;100607.69;5035160;28;20057;-78
2023/08/30 06:23:13;;;;;;;15.20;10.23;;;;;;;13.49;100.00;100600.13;5035043;28;20021;-79
2023/08/30 06:25:38;;;;;;;17.77;11.82;;;;;;;13.64;100.00;100608.47;5035432;28;20080;-79
2023/08/30 06:28:04;;;;;;;14.88;11.50;;;;;;;13.70;100.00;100602.78;5035024;28;20049;-79
2023/08/30 06:30:30;;;;;;;13.10;9.43;;;;;;;13.81;100.00;100600.16;5034985;28;20107;-79
2023/08/30 06:32:56;;;;;;;11.18;9.88;;;;;;;13.71;100.00;100581.09;5034884;28;20441;-78
2023/08/30 06:35:22;;;;;;;12.13;9.55;;;;;;;13.93;100.00;100596.56;5035032;28;20056;-82
2023/08/30 06:37:47;;;;;;;15.35;11.07;;;;;;;13.65;100.00;100561.63;5034723;28;20033;-76
2023/08/30 06:40:12;;;;;;;14.98;12.43;;;;;;;13.73;100.00;100595.56;5034266;28;20033;-78
2023/08/30 06:42:38;;;;;;;20.02;13.85;;;;;;;13.60;100.00;100592.31;5034761;28;20392;-80
2023/08/30 06:45:04;;;;;;;17.65;13.38;;;;;;;13.40;100.00;100583.50;5034654;28;20021;-77
2023/08/30 06:47:29;;;;;;;21.23;13.63;;;;;;;13.04;100.00;100553.47;5034001;28;20030;-81
2023/08/30 06:49:55;;;;;;;17.38;12.50;;;;;;;13.41;100.00;100620.66;5034523;28;20350;-77
2023/08/30 06:52:20;;;;;;;15.93;12.57;;;;;;;13.34;100.00;100616.88;5034580;28;20025;-79
2023/08/30 06:54:46;;;;;;;15.50;11.90;;;;;;;13.13;100.00;100578.66;5034027;28;20528;-77
2023/08/30 06:57:11;;;;;;;16.13;12.90;;;;;;;13.19;100.00;100604.16;5049950;28;20099;-78
2023/08/30 06:59:36;;;;;;;16.35;12.90;;;;;;;13.03;100.00;100574.31;5054748;28;20107;-78
2023/08/30 07:02:02;;;;;;;16.20;13.38;;;;;;;13.23;100.00;100606.50;5054504;28;20083;-77
2023/08/30 07:04:28;;;;;;;18.42;14.65;;;;;;;13.06;100.00;100605.19;5054329;28;20032;-76
2023/08/30 07:06:54;;;;;;;16.13;13.88;;;;;;;12.95;100.00;100597.41;5054492;28;20032;-75
2023/08/30 07:09:19;;;;;;;19.10;14.63;;;;;;;12.89;100.00;100609.91;5054091;28;20029;-76
2023/08/30 07:11:45;;;;;;;19.80;14.43;;;;;;;12.69;100.00;100587.28;5054747;28;20063;-74
2023/08/30 07:14:12;;;;;;;18.08;13.95;;;;;;;12.55;100.00;100561.56;5055350;28;20048;-74
2023/08/30 07:16:37;;;;;;;20.50;15.63;;;;;;;12.59;100.00;100576.78;5054883;28;20017;-75
2023/08/30 07:19:02;;;;;;;16.70;14.00;;;;;;;12.43;100.00;100562.50;5054580;28;20083;-74
2023/08/30 07:21:28;;;;;;;19.50;14.40;;;;;;;12.46;100.00;100570.03;5054398;28;20480;-77
2023/08/30 07:23:53;;;;;;;18.20;14.32;;;;;;;12.42;100.00;100563.44;5054270;28;20487;-72
2023/08/30 07:26:19;;;;;;;19.40;15.10;;;;;;;12.31;100.00;100538.34;5054401;28;20108;-75
2023/08/30 07:28:45;;;;;;;20.30;15.90;;;;;;;12.43;100.00;100558.13;5054256;28;20472;-72
2023/08/30 07:31:13;;;;;;;21.88;15.32;;;;;;;12.51;100.00;100560.16;5054276;28;20028;-74
2023/08/30 07:33:39;;;;;;;18.52;15.35;;;;;;;12.26;100.00;100519.72;5035776;28;20037;-75
2023/08/30 07:36:05;;;;;;;18.90;14.82;;;;;;;12.56;100.00;100553.69;5053980;28;20025;-74
2023/08/30 07:38:30;;;;;;;17.85;14.55;;;;;;;12.32;100.00;100509.75;5035433;28;20036;-80
2023/08/30 07:40:56;;;;;;;18.92;14.95;;;;;;;12.53;100.00;100529.78;5053768;28;20040;-75
2023/08/30 07:43:21;;;;;;;19.65;14.13;;;;;;;12.68;100.00;100543.31;5054322;28;20024;-76
2023/08/30 07:45:47;;;;;;;19.60;14.65;;;;;;;12.60;100.00;100529.22;5053705;28;20021;-76
2023/08/30 07:48:12;;;;;;;17.25;13.50;;;;;;;12.73;100.00;100536.03;5054083;28;20104;-75
2023/08/30 07:50:38;;;;;;;15.30;13.18;;;;;;;12.77;100.00;100534.84;5053689;28;20104;-77
2023/08/30 07:53:03;;;;;;;16.77;13.35;;;;;;;12.77;100.00;100533.09;5034981;28;20068;-74
2023/08/30 07:55:28;;;;;;;17.40;13.75;;;;;;;12.75;100.00;100531.56;5053187;28;20052;-80
2023/08/30 07:57:54;;;;;;;17.05;13.60;;;;;;;12.63;100.00;100510.00;5053243;28;20103;-75
2023/08/30 08:00:20;;;;;;;18.60;14.02;;;;;;;12.70;100.00;100529.34;5052690;28;20049;-77
2023/08/30 08:02:46;;;;;;;16.30;12.05;;;;;;;12.79;100.00;100528.63;5053526;28;20025;-75
2023/08/30 08:05:11;;;;;;;16.90;13.13;;;;;;;12.88;100.00;100532.25;5053548;28;20028;-78
2023/08/30 08:07:42;;;;;;;15.35;12.35;;;;;;;12.76;100.00;100507.28;5035333;28;20419;-75
2023/08/30 08:10:09;;;;;;;15.77;11.82;;;;;;;12.89;100.00;100529.56;5052959;28;20029;-74
2023/08/30 08:12:34;;;;;;;15.88;11.95;;;;;;;12.80;100.00;100517.31;5053373;28;20033;-74
2023/08/30 08:15:00;;;;;;;14.85;11.52;;;;;;;12.70;100.00;100513.78;5053139;28;20090;-76
2023/08/30 08:17:25;;;;;;;14.32;11.43;;;;;;;12.78;100.00;100532.16;5053113;28;20032;-74
2023/08/30 08:19:50;;;;;;;15.70;10.73;;;;;;;12.78;100.00;100526.13;5053156;28;20029;-76
2023/08/30 08:22:16;;;;;;;15.00;10.00;;;;;;;12.75;100.00;100531.56;5053178;28;20033;-76
2023/08/30 08:24:43;;;;;;;14.23;10.27;;;;;;;12.59;100.00;100506.03;5052784;28;20039;-77
2023/08/30 08:27:09;;;;;;;15.65;10.35;;;;;;;12.77;100.00;100514.13;5052845;28;20033;-74
2023/08/30 08:29:34;;;;;;;11.75;9.88;;;;;;;12.73;100.00;100505.78;5052844;28;20029;-76
2023/08/30 08:31:59;;;;;;;11.73;8.75;;;;;;;12.95;100.00;100519.66;5052735;28;20029;-75
2023/08/30 08:34:25;;;;;;;12.55;8.20;;;;;;;13.08;100.00;100522.97;5052873;28;20437;-77
2023/08/30 08:36:50;;;;;;;10.65;7.90;;;;;;;13.06;100.00;100504.91;5052809;28;20029;-81
2023/08/30 08:39:16;;;;;;;10.77;7.53;;;;;;;13.20;100.00;100519.44;5052578;28;20021;-74
2023/08/30 08:41:43;;;;;;;8.57;6.13;;;;;;;13.22;100.00;100516.72;5052657;28;20102;-75
2023/08/30 08:44:09;;;;;;;9.65;7.30;;;;;;;13.17;100.00;100517.88;5052654;28;20025;-76
2023/08/30 08:46:38;;;;;;;8.15;6.05;;;;;;;13.10;100.00;100495.13;5052636;28;20028;-76
2023/08/30 08:49:06;;;;;;;8.45;6.50;;;;;;;13.27;100.00;100512.78;5052671;28;20021;-75
2023/08/30 08:51:34;;;;;;;8.07;5.82;;;;;;;13.31;100.00;100510.78;5052519;28;20036;-76
2023/08/30 08:54:03;;;;;;;9.43;6.82;;;;;;;13.40;100.00;100518.66;5052500;28;20446;-79
2023/08/30 08:56:30;;;;;;;8.85;6.68;;;;;;;13.20;100.00;100470.16;5052089;28;20021;-75
2023/08/30 08:58:56;;;;;;;9.40;6.45;;;;;;;13.39;100.00;100506.66;5052534;28;20086;-76
2023/08/30 09:01:22;;;;;;;11.10;6.88;;;;;;;13.45;100.00;100510.50;5052609;28;20103;-76
2023/08/30 09:03:47;;;;;;;10.13;7.18;;;;;;;13.27;100.00;100489.44;5052536;28;20017;-76
2023/08/30 09:06:15;;;;;;;9.38;6.75;;;;;;;13.42;100.00;100501.22;5021357;28;20044;-76
2023/08/30 09:08:40;;;;;;;9.95;6.75;;;;;;;13.64;100.00;100512.44;5013424;28;20057;-76
2023/08/30 09:11:05;;;;;;;9.52;6.53;;;;;;;13.82;100.00;100492.78;5014240;28;20103;-76
2023/08/30 09:13:31;;;;;;;7.88;6.22;;;;;;;14.19;100.00;100500.16;5015449;28;20033;-76
2023/08/30 09:15:57;;;;;;;11.57;6.88;;;;;;;14.57;100.00;100515.16;5016632;28;20109;-77
2023/08/30 09:18:27;;;;;;;8.63;6.70;;;;;;;14.89;100.00;100504.59;5017356;28;20032;-76
2023/08/30 09:21:05;;;;;;;7.88;6.43;;;;;;;15.02;100.00;100486.97;5016674;28;20080;-76
2023/08/30 09:23:30;;;;;;;7.72;6.45;;;;;;;15.37;100.00;100489.09;5016537;28;20018;-77
2023/08/30 09:25:55;;;;;;;9.35;6.18;;;;;;;15.62;100.00;100505.97;5016172;28;20381;-79
2023/08/30 09:28:21;;;;;;;9.60;6.30;;;;;;;15.61;100.00;100490.50;5015175;28;20447;-77
2023/08/30 09:30:50;;;;;;;8.60;6.63;;;;;;;15.65;100.00;100507.50;5016259;28;20109;-78
2023/08/30 09:33:16;;;;;;;11.40;6.70;;;;;;;15.67;100.00;100518.59;5016160;28;20037;-75
2023/08/30 09:35:45;;;;;;;8.48;6.78;;;;;;;15.47;100.00;100517.72;5016534;28;20025;-80
2023/08/30 09:38:19;;;;;;;7.47;6.40;;;;;;;15.33;100.00;100520.72;5016271;28;20030;-78
2023/08/30 09:40:45;;;;;;;9.13;6.93;;;;;;;15.23;100.00;100507.69;5015966;28;20033;-79
2023/08/30 09:43:11;;;;;;;8.82;7.30;;;;;;;15.35;100.00;100519.63;5016378;28;20022;-82
2023/08/30 09:45:37;;;;;;;9.52;7.20;;;;;;;15.38;100.00;100498.53;5016060;28;20500;-77
2023/08/30 09:48:04;;;;;;;9.00;7.70;;;;;;;15.65;100.00;100489.28;5015967;28;20026;-80
2023/08/30 09:50:34;;;;;;;8.63;6.93;;;;;;;15.98;100.00;100514.88;5014735;28;20088;-78
2023/08/30 09:53:03;;;;;;;9.30;7.45;;;;;;;15.98;100.00;100532.28;5015893;28;20489;-80
2023/08/30 09:55:29;;;;;;;10.23;8.65;;;;;;;15.91;100.00;100518.97;5015913;28;20161;-80
2023/08/30 09:58:04;;;;;;;10.20;8.45;;;;;;;15.81;100.00;100493.91;5017192;28;20047;-81
2023/08/30 10:00:46;;;;;;;11.10;8.27;;;;;;;15.49;100.00;100455.97;5042361;22;20053;-81
2023/08/30 10:03:17;;;;;;;11.68;8.82;;;;;;;15.41;100.00;100396.78;5035739;28;20029;-81
2023/08/30 10:05:45;;;;;;;10.32;8.85;;;;;;;15.50;100.00;100400.34;5035500;28;20025;-81
2023/08/30 10:08:29;;;;;;;11.52;9.68;;;;;;;16.52;100.00;100521.22;5035522;28;20029;-81
2023/08/30 10:10:55;;;;;;;10.27;9.15;;;;;;;17.00;100.00;100508.94;5035240;28;20499;-81
2023/08/30 10:13:21;;;;;;;10.43;9.32;;;;;;;17.25;100.00;100510.84;5035418;28;20030;-81
2023/08/30 10:15:51;;;;;;;10.00;9.00;;;;;;;17.37;100.00;100501.84;5035224;28;20516;-81
2023/08/30 10:18:21;;;;;;;9.93;8.27;;;;;;;17.63;100.00;100509.75;5035290;28;20064;-81
2023/08/30 10:20:47;;;;;;;10.10;8.88;;;;;;;17.83;100.00;100504.41;5035313;28;20044;-81
2023/08/30 10:23:17;;;;;;;9.05;8.15;;;;;;;17.82;100.00;100506.19;5034630;28;20049;-82
2023/08/30 10:25:43;;;;;;;9.32;8.30;;;;;;;17.61;100.00;100487.38;5035300;28;20030;-81
2023/08/30 10:28:08;;;;;;;9.02;8.02;;;;;;;17.67;100.00;100474.53;5035095;28;20025;-81
2023/08/30 10:30:34;;;;;;;9.90;8.57;;;;;;;17.92;100.00;100483.41;5034990;28;20029;-82
2023/08/30 10:32:59;;;;;;;9.18;8.27;;;;;;;17.97;100.00;100489.00;5034834;28;20032;-81
2023/08/30 10:35:28;;;;;;;8.77;7.88;;;;;;;17.63;100.00;100441.88;5035179;28;20465;-79
2023/08/30 10:37:59;;;;;;;10.35;9.35;;;;;;;18.16;100.00;100490.59;5034965;28;20155;-80
2023/08/30 10:40:27;;;;;;;;;;;;;;;18.55;100.00;100483.13;5035639;28;20021;-79
2023/08/30 10:43:05;;;;;;;10.35;8.60;;;;;;;18.25;100.00;100434.78;5034484;28;20347;-81
2023/08/30 10:45:44;;;;;;;9.48;8.15;;;;;;;18.33;100.00;100462.75;5035020;28;20021;-80
2023/08/30 10:48:12;;;;;;;10.10;8.00;;;;;;;17.81;100.00;100396.66;5035026;28;20044;-81
2023/08/30 10:50:43;;;;;;;9.02;8.13;;;;;;;17.38;100.00;100312.94;5023728;28;20018;-79
2023/08/30 10:53:15;;;;;;;8.48;7.57;;;;;;;18.65;100.00;100474.38;5015642;28;20030;-80
2023/08/30 10:55:41;;;;;;;7.88;6.70;;;;;;;18.50;100.00;100424.44;5013216;28;20034;-83
2023/08/30 10:58:06;;;;;;;7.32;6.45;;;;;;;18.33;100.00;100364.25;5014360;28;20022;-81
2023/08/30 11:00:32;;;;;;;12.05;6.88;;;;;;;18.48;97.03;100363.63;5014352;28;20042;-81
2023/08/30 11:02:57;;;;;;;7.90;6.40;;;;;;;18.56;94.03;100377.53;5014786;28;20033;-80
2023/08/30 11:05:35;;;;;;;9.35;6.47;;;;;;;18.58;94.60;100374.75;5014787;28;20021;-80